createdAt,value
2019-03-04T00:01:50.762Z,8.20
2019-03-04T00:04:20.112Z,8.20
2019-03-04T00:06:49.506Z,8.20
2019-03-04T00:09:18.809Z,8.20
2019-03-04T00:11:48.103Z,8.20
2019-03-04T00:14:17.473Z,8.10
2019-03-04T00:16:46.910Z,8.10
2019-03-04T00:19:16.217Z,8.10
2019-03-04T00:21:45.626Z,8.10
2019-03-04T00:24:14.974Z,8.00
2019-03-04T00:26:44.387Z,8.00
2019-03-04T00:29:13.778Z,8.00
2019-03-04T00:31:43.126Z,8.00
2019-03-04T00:34:12.457Z,8.00
2019-03-04T00:36:41.854Z,8.00
2019-03-04T00:39:12.331Z,8.00
2019-03-04T00:41:41.682Z,8.00
2019-03-04T00:44:11.060Z,8.00
2019-03-04T00:46:40.412Z,8.00
2019-03-04T00:49:09.826Z,8.00
2019-03-04T00:51:39.198Z,8.00
2019-03-04T00:54:08.593Z,8.00
2019-03-04T00:56:38.020Z,8.00
2019-03-04T00:59:07.397Z,8.00
2019-03-04T01:01:36.818Z,8.00
2019-03-04T01:04:06.188Z,8.00
2019-03-04T01:06:35.691Z,8.10
2019-03-04T01:09:07.858Z,8.00
2019-03-04T01:11:37.237Z,8.00
2019-03-04T01:14:06.594Z,8.00
2019-03-04T01:16:35.978Z,8.00
2019-03-04T01:19:05.400Z,8.00
2019-03-04T01:21:34.809Z,8.00
2019-03-04T01:24:04.140Z,8.00
2019-03-04T01:26:33.575Z,8.00
2019-03-04T01:29:02.993Z,8.10
2019-03-04T01:31:32.398Z,8.10
2019-03-04T01:34:01.791Z,8.10
2019-03-04T01:36:31.151Z,8.10
2019-03-04T01:39:00.530Z,8.10
2019-03-04T01:41:29.846Z,8.10
2019-03-04T01:43:59.210Z,8.10
2019-03-04T01:46:28.599Z,8.10
2019-03-04T01:48:58.026Z,8.00
2019-03-04T01:51:27.416Z,8.00
2019-03-04T01:53:56.751Z,8.00
2019-03-04T01:56:26.208Z,8.00
2019-03-04T01:58:55.567Z,8.00
2019-03-04T02:01:25.038Z,8.00
2019-03-04T02:03:54.618Z,7.90
2019-03-04T02:06:23.978Z,7.90
2019-03-04T02:08:53.330Z,7.90
2019-03-04T02:11:22.801Z,7.90
2019-03-04T02:13:52.186Z,7.90
2019-03-04T02:16:21.493Z,7.80
2019-03-04T02:18:50.952Z,7.80
2019-03-04T02:21:20.339Z,7.80
2019-03-04T02:23:49.770Z,7.80
2019-03-04T02:26:22.933Z,7.80
2019-03-04T02:28:52.550Z,7.80
2019-03-04T02:31:21.921Z,7.80
2019-03-04T02:33:51.353Z,7.80
2019-03-04T02:36:20.789Z,7.80
2019-03-04T02:38:50.162Z,7.80
2019-03-04T02:41:19.493Z,7.80
2019-03-04T02:43:48.868Z,7.80
2019-03-04T02:46:18.244Z,7.80
2019-03-04T02:48:47.922Z,7.80
2019-03-04T02:51:17.308Z,7.80
2019-03-04T02:53:46.701Z,7.80
2019-03-04T02:56:16.166Z,7.80
2019-03-04T02:58:45.718Z,7.80
2019-03-04T03:01:15.716Z,7.80
2019-03-04T03:03:45.150Z,7.90
2019-03-04T03:06:14.577Z,7.90
2019-03-04T03:08:44.007Z,7.90
2019-03-04T03:11:13.434Z,8.00
2019-03-04T03:13:42.806Z,8.00
2019-03-04T03:16:12.131Z,8.00
2019-03-04T03:18:41.445Z,8.00
2019-03-04T03:21:10.886Z,8.00
2019-03-04T03:23:40.287Z,8.00
2019-03-04T03:26:09.652Z,8.00
2019-03-04T03:28:39.005Z,8.00
2019-03-04T03:31:08.486Z,7.90
2019-03-04T03:33:37.946Z,7.90
2019-03-04T03:36:07.315Z,7.90
2019-03-04T03:38:36.661Z,7.90
2019-03-04T03:41:06.154Z,7.90
2019-03-04T03:43:35.882Z,7.90
2019-03-04T03:46:05.302Z,7.90
2019-03-04T03:48:34.701Z,7.90
2019-03-04T03:51:04.152Z,7.90
2019-03-04T03:53:33.538Z,7.90
2019-03-04T03:56:02.900Z,7.90
2019-03-04T03:58:32.310Z,7.90
2019-03-04T04:01:01.742Z,8.00
2019-03-04T04:03:31.199Z,8.00
2019-03-04T04:06:00.552Z,8.00
2019-03-04T04:08:29.939Z,8.00
2019-03-04T04:10:59.374Z,8.10
2019-03-04T04:13:28.917Z,8.10
2019-03-04T04:15:58.295Z,8.10
2019-03-04T04:18:27.611Z,8.10
2019-03-04T04:20:57.052Z,8.10
2019-03-04T04:23:26.392Z,8.00
2019-03-04T04:25:55.786Z,8.00
2019-03-04T04:28:25.108Z,8.10
2019-03-04T04:30:54.415Z,8.00
2019-03-04T04:33:23.863Z,8.10
2019-03-04T04:35:53.202Z,8.00
2019-03-04T04:38:22.511Z,8.00
2019-03-04T04:40:51.927Z,8.10
2019-03-04T04:43:21.314Z,8.10
2019-03-04T04:45:50.621Z,8.10
2019-03-04T04:48:19.975Z,8.10
2019-03-04T04:50:49.407Z,8.10
2019-03-04T04:53:19.778Z,8.20
2019-03-04T04:55:49.140Z,8.10
2019-03-04T04:58:18.615Z,8.10
2019-03-04T05:00:48.054Z,8.20
2019-03-04T05:03:17.502Z,8.10
2019-03-04T05:05:46.937Z,8.20
2019-03-04T05:08:16.341Z,8.30
2019-03-04T05:10:45.769Z,8.30
2019-03-04T05:13:15.376Z,8.20
2019-03-04T05:15:44.781Z,8.30
2019-03-04T05:18:14.213Z,8.30
2019-03-04T05:20:43.624Z,8.30
2019-03-04T05:23:12.962Z,8.30
2019-03-04T05:25:42.475Z,8.40
2019-03-04T05:28:11.945Z,8.30
2019-03-04T05:30:41.316Z,8.30
2019-03-04T05:33:10.714Z,8.40
2019-03-04T05:35:40.167Z,8.40
2019-03-04T05:38:09.482Z,8.30
2019-03-04T05:40:38.830Z,8.40
2019-03-04T05:43:08.186Z,8.30
2019-03-04T05:45:37.558Z,8.40
2019-03-04T05:48:07.710Z,8.40
2019-03-04T05:50:37.397Z,8.40
2019-03-04T05:53:06.798Z,8.50
2019-03-04T05:55:36.162Z,8.50
2019-03-04T05:58:05.550Z,8.60
2019-03-04T06:00:39.674Z,8.50
2019-03-04T06:03:09.611Z,8.60
2019-03-04T06:05:38.988Z,8.60
2019-03-04T06:08:09.167Z,8.60
2019-03-04T06:10:38.473Z,8.60
2019-03-04T06:13:07.915Z,8.60
2019-03-04T06:15:37.263Z,8.60
2019-03-04T06:18:06.602Z,8.60
2019-03-04T06:20:36.022Z,8.60
2019-03-04T06:23:05.327Z,8.70
2019-03-04T06:25:34.748Z,8.70
2019-03-04T06:28:04.093Z,8.70
2019-03-04T06:30:33.524Z,8.70
2019-03-04T06:33:02.879Z,8.70
2019-03-04T06:35:32.214Z,8.70
2019-03-04T06:38:01.581Z,8.80
2019-03-04T06:40:31.048Z,8.80
2019-03-04T06:43:00.408Z,8.80
2019-03-04T06:45:29.914Z,8.80
2019-03-04T06:47:59.319Z,8.90
2019-03-04T06:50:51.681Z,8.90
2019-03-04T06:53:58.841Z,8.90
2019-03-04T06:56:50.684Z,8.90
2019-03-04T07:00:07.862Z,8.90
2019-03-04T07:02:37.926Z,9.00
2019-03-04T07:05:48.249Z,9.00
2019-03-04T07:09:01.949Z,9.10
2019-03-04T07:11:31.875Z,9.20
2019-03-04T07:14:01.240Z,9.20
2019-03-04T07:16:32.089Z,9.20
2019-03-04T07:19:04.148Z,9.30
2019-03-04T07:21:33.665Z,9.30
2019-03-04T07:24:03.179Z,9.30
2019-03-04T07:26:32.582Z,9.30
2019-03-04T07:29:01.895Z,9.40
2019-03-04T07:31:31.270Z,9.50
2019-03-04T07:34:00.653Z,9.50
2019-03-04T07:36:30.025Z,9.60
2019-03-04T07:39:05.773Z,9.60
2019-03-04T07:41:37.210Z,9.60
2019-03-04T07:44:06.584Z,9.60
2019-03-04T07:46:35.926Z,9.60
2019-03-04T07:49:05.678Z,9.70
2019-03-04T07:51:35.674Z,9.70
2019-03-04T07:54:05.554Z,9.80
2019-03-04T07:56:34.905Z,9.80
2019-03-04T07:59:04.660Z,9.90
2019-03-04T08:01:34.031Z,10.10
2019-03-04T08:04:03.399Z,10.10
2019-03-04T08:06:32.837Z,10.20
2019-03-04T08:09:57.276Z,10.30
2019-03-04T08:13:10.950Z,10.30
2019-03-04T08:15:49.495Z,10.30
2019-03-04T08:18:19.058Z,10.40
2019-03-04T08:20:48.445Z,10.40
2019-03-04T08:23:17.904Z,10.50
2019-03-04T08:25:47.315Z,10.60
2019-03-04T08:28:16.958Z,10.70
2019-03-04T08:30:46.335Z,10.80
2019-03-04T08:33:15.703Z,10.80
2019-03-04T08:35:45.303Z,11.00
2019-03-04T08:38:14.638Z,11.00
2019-03-04T08:40:44.014Z,11.00
2019-03-04T08:43:13.338Z,11.10
2019-03-04T08:45:42.931Z,11.20
2019-03-04T08:48:12.314Z,11.20
2019-03-04T08:50:41.725Z,11.20
2019-03-04T08:53:11.086Z,11.30
2019-03-04T08:55:40.499Z,11.30
2019-03-04T08:58:10.002Z,11.40
2019-03-04T09:00:39.837Z,11.40
2019-03-04T09:03:09.203Z,11.60
2019-03-04T09:05:38.690Z,11.50
2019-03-04T09:08:08.085Z,11.70
2019-03-04T09:10:37.418Z,11.80
2019-03-04T09:13:07.055Z,11.80
2019-03-04T09:15:36.451Z,11.80
2019-03-04T09:18:08.597Z,11.80
2019-03-04T09:20:38.153Z,11.80
2019-03-04T09:23:07.457Z,11.90
2019-03-04T09:25:39.775Z,12.20
2019-03-04T09:28:09.177Z,12.20
2019-03-04T09:30:38.636Z,12.20
2019-03-04T09:33:08.048Z,12.20
2019-03-04T09:35:37.691Z,12.40
2019-03-04T09:38:07.070Z,12.20
2019-03-04T09:40:38.223Z,12.30
2019-03-04T09:43:07.631Z,12.40
2019-03-04T09:45:39.052Z,12.40
2019-03-04T09:48:08.135Z,12.50
2019-03-04T09:50:37.501Z,12.60
2019-03-04T09:53:06.964Z,12.80
2019-03-04T09:55:36.459Z,12.60
2019-03-04T09:58:06.042Z,12.80
2019-03-04T10:00:38.511Z,13.20
2019-03-04T10:03:46.319Z,12.90
2019-03-04T10:06:31.570Z,13.30
2019-03-04T10:09:36.903Z,13.20
2019-03-04T10:12:52.655Z,13.30
2019-03-04T10:16:05.794Z,13.20
2019-03-04T10:19:00.515Z,13.50
2019-03-04T10:21:50.444Z,13.30
2019-03-04T10:25:15.999Z,13.50
2019-03-04T10:28:35.896Z,13.40
2019-03-04T10:31:48.687Z,13.40
2019-03-04T10:35:05.862Z,13.30
2019-03-04T10:37:59.504Z,13.40
2019-03-04T10:40:58.450Z,13.60
2019-03-04T10:44:11.226Z,13.80
2019-03-04T10:46:56.954Z,14.00
2019-03-04T10:49:28.280Z,13.90
2019-03-04T10:51:57.859Z,13.60
2019-03-04T10:54:27.250Z,13.90
2019-03-04T10:56:56.610Z,13.70
2019-03-04T10:59:26.030Z,13.90
2019-03-04T11:01:55.417Z,14.20
2019-03-04T11:04:24.802Z,14.00
2019-03-04T11:06:54.966Z,14.30
2019-03-04T11:09:24.554Z,14.40
2019-03-04T11:11:53.926Z,14.20
2019-03-04T11:14:23.498Z,14.20
2019-03-04T11:16:52.838Z,14.30
2019-03-04T11:19:22.239Z,14.70
2019-03-04T11:21:51.602Z,14.80
2019-03-04T11:24:22.334Z,15.20
2019-03-04T11:26:51.965Z,15.20
2019-03-04T11:29:21.394Z,14.70
2019-03-04T11:31:50.783Z,14.40
2019-03-04T11:34:20.202Z,14.40
2019-03-04T11:36:49.782Z,14.30
2019-03-04T11:39:44.817Z,14.10
2019-03-04T11:42:14.194Z,14.20
2019-03-04T11:44:43.630Z,14.20
2019-03-04T11:47:13.046Z,14.10
2019-03-04T11:49:42.803Z,14.00
2019-03-04T11:52:12.157Z,14.00
2019-03-04T11:54:41.556Z,13.90
2019-03-04T11:57:10.966Z,13.90
2019-03-04T11:59:40.426Z,13.90
2019-03-04T12:02:16.340Z,13.90
2019-03-04T12:04:45.685Z,14.00
2019-03-04T12:07:15.138Z,14.00
2019-03-04T12:09:44.566Z,14.00
2019-03-04T12:12:13.880Z,14.00
2019-03-04T12:14:43.218Z,14.00
2019-03-04T12:17:12.595Z,13.80
2019-03-04T12:19:42.461Z,13.70
2019-03-04T12:22:11.908Z,13.80
2019-03-04T12:24:41.406Z,13.80
2019-03-04T12:27:10.709Z,13.90
2019-03-04T12:29:40.001Z,13.90
2019-03-04T12:32:25.086Z,14.00
2019-03-04T12:34:54.541Z,14.00
2019-03-04T12:37:24.064Z,14.10
2019-03-04T12:39:53.476Z,14.20
2019-03-04T12:42:22.851Z,14.30
2019-03-04T12:44:52.505Z,14.30
2019-03-04T12:47:22.017Z,14.30
2019-03-04T12:49:51.460Z,14.40
2019-03-04T12:52:20.796Z,14.40
2019-03-04T12:54:50.292Z,14.40
2019-03-04T12:57:19.799Z,14.40
2019-03-04T12:59:49.110Z,14.40
2019-03-04T13:02:18.570Z,14.50
2019-03-04T13:04:47.905Z,14.50
2019-03-04T13:07:17.355Z,14.60
2019-03-04T13:09:46.892Z,14.60
2019-03-04T13:12:16.240Z,14.60
2019-03-04T13:14:45.757Z,14.60
2019-03-04T13:17:15.116Z,14.70
2019-03-04T13:19:44.461Z,14.70
2019-03-04T13:22:14.043Z,14.70
2019-03-04T13:24:43.445Z,14.70
2019-03-04T13:27:12.833Z,14.70
2019-03-04T13:29:42.195Z,14.70
2019-03-04T13:32:11.537Z,14.80
2019-03-04T13:34:41.099Z,14.70
2019-03-04T13:37:10.478Z,14.70
2019-03-04T13:39:39.901Z,14.80
2019-03-04T13:42:09.226Z,14.80
2019-03-04T13:44:38.705Z,14.80
2019-03-04T13:47:08.209Z,14.80
2019-03-04T13:49:37.550Z,14.90
2019-03-04T13:52:06.861Z,14.90
2019-03-04T13:54:36.461Z,14.90
2019-03-04T13:57:05.771Z,15.00
2019-03-04T13:59:35.229Z,15.10
2019-03-04T14:02:04.878Z,15.20
2019-03-04T14:04:34.337Z,15.30
2019-03-04T14:07:03.660Z,15.20
2019-03-04T14:09:33.008Z,15.20
2019-03-04T14:12:02.373Z,15.10
2019-03-04T14:14:31.881Z,15.10
2019-03-04T14:17:01.396Z,15.10
2019-03-04T14:19:30.809Z,15.00
2019-03-04T14:22:00.245Z,15.10
2019-03-04T14:24:29.595Z,15.10
2019-03-04T14:26:59.103Z,15.00
2019-03-04T14:29:28.491Z,15.10
2019-03-04T14:31:57.832Z,15.10
2019-03-04T14:34:27.190Z,15.00
2019-03-04T14:36:56.549Z,15.10
2019-03-04T14:39:25.890Z,15.10
2019-03-04T14:41:55.231Z,15.10
2019-03-04T14:44:24.658Z,15.10
2019-03-04T14:46:54.081Z,15.10
2019-03-04T14:49:23.397Z,15.10
2019-03-04T14:51:52.759Z,15.10
2019-03-04T14:54:22.131Z,15.00
2019-03-04T14:56:51.528Z,14.90
2019-03-04T14:59:20.893Z,15.00
2019-03-04T15:01:50.356Z,14.90
2019-03-04T15:04:19.701Z,14.90
2019-03-04T15:06:49.124Z,14.90
2019-03-04T15:09:18.504Z,14.80
2019-03-04T15:11:47.879Z,14.90
2019-03-04T15:14:17.223Z,14.90
2019-03-04T15:16:46.630Z,14.90
2019-03-04T15:19:16.132Z,14.80
2019-03-04T15:21:45.567Z,14.90
2019-03-04T15:24:14.924Z,14.90
2019-03-04T15:26:44.467Z,14.90
2019-03-04T15:29:13.830Z,15.00
2019-03-04T15:31:43.292Z,15.00
2019-03-04T15:34:12.678Z,15.00
2019-03-04T15:36:42.044Z,15.00
2019-03-04T15:39:22.990Z,14.90
2019-03-04T15:41:50.233Z,14.80
2019-03-04T15:44:19.924Z,14.70
2019-03-04T15:46:49.398Z,14.80
2019-03-04T15:49:18.831Z,14.80
2019-03-04T15:51:48.165Z,14.70
2019-03-04T15:54:17.702Z,14.70
2019-03-04T15:56:47.131Z,14.60
2019-03-04T15:59:16.441Z,14.60
2019-03-04T16:01:45.973Z,14.60
2019-03-04T16:04:15.373Z,14.60
2019-03-04T16:06:44.902Z,14.50
2019-03-04T16:09:17.365Z,14.50
2019-03-04T16:11:46.646Z,14.40
2019-03-04T16:14:16.178Z,14.40
2019-03-04T16:16:45.605Z,14.40
2019-03-04T16:19:14.981Z,14.30
2019-03-04T16:21:44.423Z,14.30
2019-03-04T16:24:13.994Z,14.20
2019-03-04T16:26:43.386Z,14.20
2019-03-04T16:29:12.743Z,14.20
2019-03-04T16:31:42.311Z,14.00
2019-03-04T16:34:11.759Z,14.10
2019-03-04T16:36:41.421Z,14.00
2019-03-04T16:39:11.102Z,14.00
2019-03-04T16:41:40.474Z,14.00
2019-03-04T16:44:09.842Z,14.10
2019-03-04T16:46:39.251Z,14.00
2019-03-04T16:49:08.679Z,14.00
2019-03-04T16:51:38.018Z,13.90
2019-03-04T16:54:07.344Z,13.90
2019-03-04T16:56:36.822Z,14.00
2019-03-04T16:59:06.218Z,14.00
2019-03-04T17:01:35.594Z,14.00
2019-03-04T17:04:04.975Z,14.00
2019-03-04T17:06:34.318Z,14.00
2019-03-04T17:09:05.843Z,14.00
2019-03-04T17:11:35.351Z,14.00
2019-03-04T17:14:04.775Z,14.00
2019-03-04T17:16:34.138Z,13.90
2019-03-04T17:19:03.526Z,13.90
2019-03-04T17:21:32.928Z,13.80
2019-03-04T17:24:02.533Z,13.70
2019-03-04T17:26:33.369Z,13.70
2019-03-04T17:29:02.945Z,13.70
2019-03-04T17:31:32.325Z,13.60
2019-03-04T17:34:01.701Z,13.60
2019-03-04T17:36:31.109Z,13.70
2019-03-04T17:39:00.618Z,13.70
2019-03-04T17:41:29.942Z,13.60
2019-03-04T17:43:59.422Z,13.60
2019-03-04T17:46:28.894Z,13.60
2019-03-04T17:48:58.368Z,13.70
2019-03-04T17:51:27.746Z,13.70
2019-03-04T17:53:57.078Z,13.70
2019-03-04T17:56:26.570Z,13.60
2019-03-04T17:58:56.010Z,13.60
2019-03-04T18:01:25.438Z,13.70
2019-03-04T18:03:58.447Z,13.70
2019-03-04T18:06:29.731Z,13.60
2019-03-04T18:08:59.160Z,13.60
2019-03-04T18:11:28.553Z,13.70
2019-03-04T18:13:57.985Z,13.60
2019-03-04T18:16:27.806Z,13.50
2019-03-04T18:18:57.174Z,13.50
2019-03-04T18:21:26.582Z,13.50
2019-03-04T18:24:39.992Z,13.50
2019-03-04T18:27:26.763Z,13.50
2019-03-04T18:30:39.416Z,13.50
2019-03-04T18:33:48.293Z,13.60
2019-03-04T18:37:01.381Z,13.60
2019-03-04T18:40:07.513Z,13.50
2019-03-04T18:43:28.882Z,13.50
2019-03-04T18:46:47.205Z,13.50
2019-03-04T18:49:25.234Z,13.40
2019-03-04T18:51:54.726Z,13.50
2019-03-04T18:54:24.182Z,13.40
2019-03-04T18:57:31.016Z,13.50
2019-03-04T19:00:00.540Z,13.40
2019-03-04T19:02:29.870Z,13.50
2019-03-04T19:04:59.263Z,13.40
2019-03-04T19:07:28.844Z,13.30
2019-03-04T19:09:58.158Z,13.30
2019-03-04T19:12:27.461Z,13.30
2019-03-04T19:14:56.849Z,13.30
2019-03-04T19:17:33.347Z,13.30
2019-03-04T19:19:57.398Z,13.20
2019-03-04T19:22:26.798Z,13.30
2019-03-04T19:24:56.117Z,13.30
2019-03-04T19:27:25.439Z,13.20
2019-03-04T19:29:54.872Z,13.30
2019-03-04T19:32:24.274Z,13.40
2019-03-04T19:34:53.623Z,13.30
2019-03-04T19:37:23.050Z,13.30
2019-03-04T19:39:52.415Z,13.40
2019-03-04T19:42:21.781Z,13.40
2019-03-04T19:44:51.269Z,13.40
2019-03-04T19:47:20.601Z,13.40
2019-03-04T19:49:50.076Z,13.60
2019-03-04T19:52:19.483Z,13.50
2019-03-04T19:54:48.881Z,13.50
2019-03-04T19:57:18.316Z,13.50
2019-03-04T19:59:47.701Z,13.50
2019-03-04T20:02:17.671Z,13.50
2019-03-04T20:04:47.072Z,13.40
2019-03-04T20:07:16.796Z,13.50
2019-03-04T20:09:46.364Z,13.40
2019-03-04T20:12:15.707Z,13.40
2019-03-04T20:14:45.116Z,13.40
2019-03-04T20:17:14.518Z,13.30
2019-03-04T20:19:43.948Z,13.30
2019-03-04T20:22:13.366Z,13.20
2019-03-04T20:24:42.739Z,13.20
2019-03-04T20:27:12.117Z,13.10
2019-03-04T20:29:41.522Z,13.10
2019-03-04T20:32:10.873Z,13.20
2019-03-04T20:34:40.225Z,13.10
2019-03-04T20:37:10.074Z,13.00
2019-03-04T20:39:39.394Z,13.00
2019-03-04T20:42:08.738Z,12.90
2019-03-04T20:44:38.216Z,12.90
2019-03-04T20:47:07.583Z,12.80
2019-03-04T20:49:37.110Z,12.80
2019-03-04T20:52:06.610Z,12.80
2019-03-04T20:54:36.076Z,12.80
2019-03-04T20:57:05.824Z,12.80
2019-03-04T20:59:35.147Z,12.80
2019-03-04T21:02:04.813Z,12.70
2019-03-04T21:04:34.195Z,12.60
2019-03-04T21:07:03.671Z,12.60
2019-03-04T21:09:33.030Z,12.50
2019-03-04T21:12:02.604Z,12.50
2019-03-04T21:14:32.035Z,12.40
2019-03-04T21:17:01.448Z,12.40
2019-03-04T21:19:30.754Z,12.30
2019-03-04T21:22:00.194Z,12.30
2019-03-04T21:24:29.599Z,12.20
2019-03-04T21:26:59.481Z,12.20
2019-03-04T21:30:10.263Z,12.30
2019-03-04T21:33:07.547Z,12.20
2019-03-04T21:36:06.848Z,12.20
2019-03-04T21:38:36.355Z,12.10
2019-03-04T21:41:42.015Z,12.00
2019-03-04T21:44:47.076Z,12.10
2019-03-04T21:47:29.436Z,12.00
2019-03-04T21:49:59.194Z,12.00
2019-03-04T21:53:02.161Z,12.00
2019-03-04T21:55:42.549Z,12.00
2019-03-04T21:58:12.178Z,11.90
2019-03-04T22:00:43.390Z,11.90
2019-03-04T22:03:33.519Z,11.90
2019-03-04T22:06:03.399Z,11.90
2019-03-04T22:08:32.831Z,11.90
2019-03-04T22:11:02.713Z,11.90
2019-03-04T22:13:32.178Z,11.90
2019-03-04T22:16:01.631Z,11.90
2019-03-04T22:18:31.033Z,12.00
2019-03-04T22:21:00.496Z,12.00
2019-03-04T22:23:29.863Z,12.00
2019-03-04T22:26:02.190Z,12.00
2019-03-04T22:28:30.302Z,11.90
2019-03-04T22:30:59.708Z,12.00
2019-03-04T22:33:29.147Z,12.00
2019-03-04T22:35:58.585Z,11.90
2019-03-04T22:38:28.139Z,11.90
2019-03-04T22:40:57.501Z,11.80
2019-03-04T22:43:26.916Z,11.70
2019-03-04T22:45:56.327Z,11.70
2019-03-04T22:48:25.737Z,11.60
2019-03-04T22:50:55.087Z,11.50
2019-03-04T22:53:24.546Z,11.50
2019-03-04T22:55:53.910Z,11.30
2019-03-04T22:58:28.631Z,11.30
2019-03-04T23:01:37.862Z,11.10
2019-03-04T23:04:28.080Z,11.00
2019-03-04T23:07:21.365Z,10.80
2019-03-04T23:10:35.675Z,10.70
2019-03-04T23:13:46.378Z,10.70
2019-03-04T23:16:19.095Z,10.50
2019-03-04T23:18:48.576Z,10.30
2019-03-04T23:21:17.916Z,10.10
2019-03-04T23:23:47.207Z,10.00
2019-03-04T23:26:16.579Z,9.80
2019-03-04T23:28:46.020Z,9.70
2019-03-04T23:31:15.410Z,9.60
2019-03-04T23:33:44.705Z,9.60
2019-03-04T23:36:14.047Z,9.40
2019-03-04T23:38:43.411Z,9.30
2019-03-04T23:41:14.311Z,9.20
2019-03-04T23:43:43.893Z,9.00
2019-03-04T23:46:13.316Z,9.00
2019-03-04T23:48:42.764Z,8.80
2019-03-04T23:51:12.209Z,8.60
2019-03-04T23:53:41.560Z,8.50
2019-03-04T23:56:10.920Z,8.50
2019-03-04T23:58:40.294Z,8.30
